Time;durP1;ratioP1;P1;durP2;ratioP2;P2;SDS_P1;SDS_P2;PMS_P1;PMS_P2;Temp;Humidity;BMP_temperature;BMP_pressure;BME280_temperature;BME280_humidity;BME280_pressure;Samples;Min_cycle;Max_cycle;Signal;HPM_P1;HPM_P2
2022/12/08 00:01:14;;;;;;;24.48;13.05;;;-0.10;99.90;;;;;;5046945;28;20959;-71
2022/12/08 00:03:40;;;;;;;21.75;12.65;;;-0.10;99.90;;;;;;5019806;28;20119;-71
2022/12/08 00:11:38;;;;;;;23.95;13.50;;;0.10;99.90;;;;;;5046174;28;20131;-71
2022/12/08 00:14:04;;;;;;;28.60;14.65;;;0.10;99.90;;;;;;5056446;28;20033;-70
2022/12/08 00:16:30;;;;;;;32.25;14.25;;;0.10;99.90;;;;;;5056987;28;20047;-71
2022/12/08 00:18:55;;;;;;;23.23;13.15;;;0.10;99.90;;;;;;5058263;28;20120;-70
2022/12/08 00:21:21;;;;;;;27.42;13.38;;;0.10;99.90;;;;;;5052440;28;20070;-70
2022/12/08 00:23:46;;;;;;;25.63;13.60;;;0.10;99.90;;;;;;5053450;28;20261;-70
2022/12/08 00:26:12;;;;;;;24.98;13.00;;;0.10;99.90;;;;;;5039514;28;20053;-70
2022/12/08 00:28:38;;;;;;;27.88;14.07;;;0.10;99.90;;;;;;5044112;28;20498;-71
2022/12/08 00:31:08;;;;;;;23.58;13.63;;;0.20;99.90;;;;;;5043513;28;20024;-70
2022/12/08 00:33:34;;;;;;;23.77;13.37;;;0.20;99.90;;;;;;5058365;28;20028;-70
2022/12/08 00:36:11;;;;;;;23.20;12.77;;;0.10;99.90;;;;;;5038098;28;20790;-70
2022/12/08 00:38:37;;;;;;;25.80;13.23;;;0.30;99.90;;;;;;5037813;28;20119;-70
2022/12/08 00:41:10;;;;;;;23.75;13.70;;;0.20;99.90;;;;;;5053121;28;20517;-71
2022/12/08 00:43:36;;;;;;;20.58;12.75;;;0.20;99.90;;;;;;5038447;28;20275;-72
2022/12/08 00:46:02;;;;;;;25.63;13.05;;;0.20;99.90;;;;;;5037962;28;20099;-72
2022/12/08 00:48:27;;;;;;;26.10;13.80;;;0.20;99.90;;;;;;5050692;28;20502;-72
2022/12/08 00:50:53;;;;;;;24.88;11.70;;;0.20;99.90;;;;;;5060424;28;20108;-72
2022/12/08 00:53:19;;;;;;;23.67;12.95;;;0.20;99.90;;;;;;5058687;28;20063;-72
2022/12/08 00:55:44;;;;;;;25.13;13.35;;;0.10;99.90;;;;;;5057974;28;20051;-71
2022/12/08 00:58:10;;;;;;;26.58;14.02;;;0.10;99.90;;;;;;5049853;28;20043;-72
2022/12/08 01:00:35;;;;;;;26.58;13.60;;;0.00;99.90;;;;;;5061268;28;20067;-72
2022/12/08 01:03:01;;;;;;;24.98;12.77;;;0.00;99.90;;;;;;5027501;28;20028;-72
2022/12/08 01:05:27;;;;;;;29.13;13.38;;;-0.10;99.90;;;;;;5053215;28;20048;-72
2022/12/08 01:07:52;;;;;;;22.95;13.32;;;-0.10;99.90;;;;;;5021156;28;20033;-72
2022/12/08 01:10:18;;;;;;;26.98;12.90;;;-0.10;99.90;;;;;;5022486;28;20834;-72
2022/12/08 01:12:43;;;;;;;22.73;12.55;;;-0.20;99.90;;;;;;5041497;28;20060;-72
2022/12/08 01:15:09;;;;;;;31.15;13.40;;;-0.20;99.90;;;;;;5048531;28;20037;-73
2022/12/08 01:17:36;;;;;;;23.38;12.77;;;-0.30;99.90;;;;;;5061552;28;20064;-72
2022/12/08 01:20:03;;;;;;;28.98;14.25;;;-0.40;99.90;;;;;;5030092;28;20387;-72
2022/12/08 01:22:28;;;;;;;30.20;14.02;;;-0.40;99.90;;;;;;5057328;28;20039;-72
2022/12/08 01:24:54;;;;;;;28.92;13.18;;;-0.50;99.90;;;;;;5060926;28;20419;-72
2022/12/08 01:27:20;;;;;;;22.13;12.15;;;-0.50;99.90;;;;;;5060971;28;20040;-72
2022/12/08 01:29:45;;;;;;;24.40;13.40;;;-0.60;99.90;;;;;;5051219;28;20033;-72
2022/12/08 01:32:11;;;;;;;19.95;12.50;;;-0.70;99.90;;;;;;5047267;28;20068;-72
2022/12/08 01:34:36;;;;;;;27.42;12.98;;;-0.80;99.90;;;;;;5028418;28;20164;-72
2022/12/08 01:37:02;;;;;;;27.40;13.73;;;-0.80;99.90;;;;;;5039033;28;20029;-72
2022/12/08 01:39:28;;;;;;;20.98;12.30;;;-0.80;99.90;;;;;;5017547;28;20132;-71
2022/12/08 01:41:54;;;;;;;25.25;12.57;;;-0.90;99.90;;;;;;5020667;28;20061;-72
2022/12/08 01:44:20;;;;;;;24.83;12.75;;;-0.90;99.90;;;;;;5020511;28;20456;-72
2022/12/08 01:46:48;;;;;;;21.85;13.13;;;-0.90;99.90;;;;;;5019554;28;20033;-71
2022/12/08 01:49:30;;;;;;;24.40;12.10;;;-0.90;99.90;;;;;;5041711;28;20028;-71
2022/12/08 01:51:58;;;;;;;26.20;13.55;;;-0.90;99.90;;;;;;5058599;28;20453;-71
2022/12/08 01:54:29;;;;;;;24.42;12.40;;;-0.90;99.90;;;;;;5058175;28;20265;-71
2022/12/08 01:57:06;;;;;;;20.27;12.63;;;-0.90;99.90;;;;;;5059118;28;20260;-71
2022/12/08 01:59:36;;;;;;;24.13;12.77;;;-0.90;99.90;;;;;;5057542;28;20025;-71
2022/12/08 02:02:01;;;;;;;24.33;12.98;;;-0.90;99.90;;;;;;5054772;28;20091;-71
2022/12/08 02:04:27;;;;;;;25.60;13.02;;;-1.00;99.90;;;;;;5060026;28;20476;-71
2022/12/08 02:06:53;;;;;;;22.20;12.80;;;-1.10;99.90;;;;;;5053447;28;20028;-71
2022/12/08 02:09:20;;;;;;;24.48;11.98;;;-1.10;99.90;;;;;;5052699;28;20298;-71
2022/12/08 02:11:46;;;;;;;27.02;13.18;;;-1.10;99.90;;;;;;5052316;28;20039;-72
2022/12/08 02:14:13;;;;;;;22.00;11.25;;;-1.10;99.90;;;;;;5040540;28;20024;-71
2022/12/08 02:16:39;;;;;;;28.30;13.00;;;-1.10;99.90;;;;;;5056378;28;20500;-71
2022/12/08 02:19:29;;;;;;;26.65;13.90;;;-1.00;99.90;;;;;;5059975;28;20036;-71
2022/12/08 02:22:06;;;;;;;21.55;12.02;;;-1.00;99.90;;;;;;5057488;28;20031;-71
2022/12/08 02:24:37;;;;;;;23.20;11.77;;;-1.10;99.90;;;;;;5058254;28;20052;-71
2022/12/08 02:27:24;;;;;;;22.77;12.23;;;-1.10;99.90;;;;;;5027806;28;20130;-71
2022/12/08 02:30:16;;;;;;;25.52;13.57;;;-1.10;99.90;;;;;;5060478;28;20036;-71
2022/12/08 02:32:54;;;;;;;26.40;13.02;;;-1.10;99.90;;;;;;5037901;28;20021;-70
2022/12/08 02:35:32;;;;;;;22.23;12.63;;;-1.20;99.90;;;;;;5036353;28;20368;-70
2022/12/08 02:38:17;;;;;;;28.30;13.50;;;-1.20;99.90;;;;;;5049630;28;20405;-71
2022/12/08 02:40:51;;;;;;;23.80;12.75;;;-1.30;99.90;;;;;;5040923;28;20059;-70
2022/12/08 02:43:34;;;;;;;26.20;14.00;;;-1.30;99.90;;;;;;5055075;28;20043;-70
2022/12/08 02:46:23;;;;;;;26.70;13.55;;;-1.30;99.90;;;;;;5013867;28;20030;-70
2022/12/08 02:48:51;;;;;;;26.73;13.07;;;-1.40;99.90;;;;;;5060676;28;20082;-70
2022/12/08 02:51:17;;;;;;;24.10;12.93;;;-1.30;99.90;;;;;;5017329;28;20033;-71
2022/12/08 02:53:43;;;;;;;25.00;13.43;;;-1.40;99.90;;;;;;5047210;28;20504;-70
2022/12/08 02:56:33;;;;;;;24.15;13.73;;;-1.40;99.90;;;;;;5054219;28;20511;-70
2022/12/08 02:59:17;;;;;;;26.70;13.38;;;-1.40;99.90;;;;;;5051933;28;20420;-71
2022/12/08 03:01:56;;;;;;;24.33;13.35;;;-1.40;99.90;;;;;;5036327;28;20060;-70
2022/12/08 03:04:45;;;;;;;23.55;13.55;;;-1.40;99.90;;;;;;5039440;28;20078;-71
2022/12/08 03:07:28;;;;;;;20.10;12.52;;;-1.50;99.90;;;;;;5045298;28;20230;-70
2022/12/08 03:09:59;;;;;;;28.10;12.70;;;-1.50;99.90;;;;;;5059826;28;20028;-70
2022/12/08 03:12:33;;;;;;;24.60;13.70;;;-1.50;99.90;;;;;;5047293;28;20053;-71
2022/12/08 03:15:05;;;;;;;26.10;13.18;;;-1.50;99.90;;;;;;5017418;28;20531;-71
2022/12/08 03:17:32;;;;;;;30.85;13.07;;;-1.50;99.90;;;;;;5032514;28;20135;-71
2022/12/08 03:20:02;;;;;;;25.83;12.75;;;-1.50;99.90;;;;;;5037039;28;20033;-71
2022/12/08 03:22:28;;;;;;;23.65;12.10;;;-1.50;99.90;;;;;;5043296;28;20120;-71
2022/12/08 03:24:55;;;;;;;22.13;12.10;;;-1.50;99.90;;;;;;5030780;28;20128;-70
2022/12/08 03:27:27;;;;;;;24.02;12.52;;;-1.50;99.90;;;;;;5047063;28;20041;-71
2022/12/08 03:29:54;;;;;;;23.77;12.73;;;-1.50;99.90;;;;;;5054995;28;20344;-71
2022/12/08 03:32:38;;;;;;;21.02;11.88;;;-1.40;99.90;;;;;;5056680;28;20048;-70
2022/12/08 03:35:09;;;;;;;24.45;12.93;;;-1.50;99.90;;;;;;5053040;28;20036;-71
2022/12/08 03:37:37;;;;;;;26.80;13.57;;;-1.40;99.90;;;;;;5045508;28;20048;-71
2022/12/08 03:40:05;;;;;;;25.00;12.55;;;-1.40;99.90;;;;;;5036631;28;20104;-71
2022/12/08 03:42:30;;;;;;;24.35;12.65;;;-1.50;99.90;;;;;;5047129;28;20242;-71
2022/12/08 03:44:56;;;;;;;20.95;12.18;;;-1.50;99.90;;;;;;5051191;28;20202;-71
2022/12/08 03:47:22;;;;;;;22.83;13.30;;;-1.50;99.90;;;;;;5051250;28;20056;-70
2022/12/08 03:49:47;;;;;;;23.88;13.00;;;-1.50;99.90;;;;;;5027807;28;20104;-71
2022/12/08 03:52:13;;;;;;;22.75;13.27;;;-1.50;99.90;;;;;;5037030;28;20477;-71
2022/12/08 03:54:38;;;;;;;27.13;13.60;;;-1.60;99.90;;;;;;5039337;28;20749;-71
2022/12/08 03:57:04;;;;;;;25.90;14.30;;;-1.60;99.90;;;;;;5055529;28;20134;-71
2022/12/08 03:59:29;;;;;;;25.60;13.32;;;-1.60;99.90;;;;;;5055871;28;20025;-71
2022/12/08 04:01:55;;;;;;;30.08;13.52;;;-1.70;99.90;;;;;;5031705;28;20076;-70
2022/12/08 04:04:21;;;;;;;25.40;13.52;;;-1.70;99.90;;;;;;5027673;28;20416;-70
2022/12/08 04:06:46;;;;;;;30.08;13.23;;;-1.70;99.90;;;;;;5047226;28;20098;-71
2022/12/08 04:09:12;;;;;;;22.45;13.68;;;-1.70;99.90;;;;;;5046584;28;20043;-71
2022/12/08 04:11:38;;;;;;;25.20;12.85;;;-1.70;99.90;;;;;;5039504;28;20040;-71
2022/12/08 04:14:03;;;;;;;29.45;14.23;;;-1.70;99.90;;;;;;5027959;28;20468;-71
2022/12/08 04:16:29;;;;;;;25.00;12.90;;;-1.80;99.90;;;;;;5046659;28;20039;-71
2022/12/08 04:18:55;;;;;;;24.77;13.23;;;-1.80;99.90;;;;;;5018763;28;20036;-71
2022/12/08 04:21:21;;;;;;;21.33;12.57;;;-1.80;99.90;;;;;;5025706;28;20144;-70
2022/12/08 04:23:47;;;;;;;27.65;13.15;;;-1.90;99.90;;;;;;5039112;28;20386;-72
2022/12/08 04:26:13;;;;;;;24.27;13.57;;;-2.00;99.90;;;;;;5035259;28;20069;-71
2022/12/08 04:28:39;;;;;;;24.92;12.10;;;-1.90;99.90;;;;;;5037661;28;20387;-71
2022/12/08 04:31:05;;;;;;;24.02;13.98;;;-1.90;99.90;;;;;;5051176;28;20043;-71
2022/12/08 04:33:31;;;;;;;23.48;12.30;;;-1.80;99.90;;;;;;5054947;28;20037;-71
2022/12/08 04:35:56;;;;;;;25.15;13.15;;;-1.80;99.90;;;;;;5038951;28;20044;-71
2022/12/08 04:38:22;;;;;;;21.30;12.48;;;-1.80;99.90;;;;;;5030226;28;20025;-71
2022/12/08 04:40:48;;;;;;;25.08;13.30;;;-1.80;99.90;;;;;;5018439;28;20034;-71
2022/12/08 04:43:14;;;;;;;25.92;13.35;;;-1.80;99.90;;;;;;5026627;28;20465;-71
2022/12/08 04:45:41;;;;;;;27.88;13.15;;;-1.80;99.90;;;;;;5048669;28;20173;-70
2022/12/08 04:48:07;;;;;;;24.75;12.95;;;-1.80;99.90;;;;;;5058956;28;20033;-71
2022/12/08 04:50:32;;;;;;;26.02;12.98;;;-1.80;99.90;;;;;;5053847;28;20028;-71
2022/12/08 04:52:58;;;;;;;21.77;11.98;;;-1.80;99.90;;;;;;5058034;28;20046;-71
2022/12/08 04:55:24;;;;;;;25.98;12.88;;;-1.70;99.90;;;;;;5052888;28;20155;-71
2022/12/08 04:57:49;;;;;;;25.05;12.90;;;-1.80;99.90;;;;;;5058920;28;20032;-71
2022/12/08 05:00:15;;;;;;;30.08;12.68;;;-1.70;99.90;;;;;;5045528;28;20443;-70
2022/12/08 05:02:41;;;;;;;24.88;12.32;;;-1.80;99.90;;;;;;5039999;28;20388;-70
2022/12/08 05:05:07;;;;;;;22.33;12.10;;;-1.80;99.90;;;;;;5054817;28;20024;-72
2022/12/08 05:07:33;;;;;;;26.60;12.65;;;-1.80;99.90;;;;;;5055341;28;20206;-71
2022/12/08 05:09:58;;;;;;;23.33;12.80;;;-1.90;99.90;;;;;;5050454;28;20034;-70
2022/12/08 05:12:24;;;;;;;23.73;12.68;;;-1.90;99.90;;;;;;5026118;28;20040;-71
2022/12/08 05:14:50;;;;;;;20.92;11.75;;;-1.90;99.90;;;;;;5036244;28;20727;-72
2022/12/08 05:17:17;;;;;;;21.35;12.60;;;-1.90;99.90;;;;;;5046311;28;20037;-70
2022/12/08 05:19:42;;;;;;;25.13;12.95;;;-2.00;99.90;;;;;;5041269;28;20048;-72
2022/12/08 05:22:08;;;;;;;26.90;11.85;;;-2.00;99.90;;;;;;5054383;28;20033;-71
2022/12/08 05:24:34;;;;;;;27.15;12.77;;;-2.00;99.90;;;;;;5052637;28;20049;-71
2022/12/08 05:26:59;;;;;;;22.35;12.57;;;-2.00;99.90;;;;;;5041452;28;20519;-70
2022/12/08 05:29:25;;;;;;;23.63;12.93;;;-1.90;99.90;;;;;;5054048;28;20123;-71
2022/12/08 05:31:51;;;;;;;25.23;11.48;;;-2.00;99.90;;;;;;5034676;28;20177;-70
2022/12/08 05:34:17;;;;;;;24.17;12.70;;;-2.00;99.90;;;;;;5040218;28;20036;-71
2022/12/08 05:36:42;;;;;;;21.75;11.75;;;-2.10;99.90;;;;;;5057367;28;20036;-71
2022/12/08 05:39:12;;;;;;;24.48;12.60;;;-2.10;99.90;;;;;;5030760;28;20030;-70
2022/12/08 05:41:38;;;;;;;26.48;12.45;;;-2.20;99.90;;;;;;5020733;28;20247;-71
2022/12/08 05:44:04;;;;;;;24.85;12.43;;;-2.10;99.90;;;;;;5051666;28;20025;-71
2022/12/08 05:46:29;;;;;;;25.75;12.60;;;-2.10;99.90;;;;;;5023550;28;20320;-71
2022/12/08 05:48:55;;;;;;;23.50;12.13;;;-2.10;99.90;;;;;;5052463;28;20405;-71
2022/12/08 05:51:22;;;;;;;27.80;12.90;;;-2.10;99.90;;;;;;5049760;28;20044;-72
2022/12/08 05:53:50;;;;;;;25.13;12.13;;;-2.10;99.90;;;;;;5061625;28;20028;-71
2022/12/08 05:56:16;;;;;;;26.08;13.05;;;-2.10;99.90;;;;;;5057240;28;20472;-71
2022/12/08 05:58:42;;;;;;;28.35;13.60;;;-2.10;99.90;;;;;;5062175;28;20029;-71
2022/12/08 06:01:22;;;;;;;22.80;12.73;;;-2.10;99.90;;;;;;5054981;28;20295;-71
2022/12/08 06:03:47;;;;;;;22.52;12.32;;;-2.10;99.90;;;;;;5043768;28;20563;-71
2022/12/08 06:06:13;;;;;;;22.70;12.88;;;-2.10;99.90;;;;;;5026612;28;20043;-70
2022/12/08 06:08:39;;;;;;;25.23;13.25;;;-2.10;99.90;;;;;;5054269;28;20103;-71
2022/12/08 06:11:04;;;;;;;26.58;13.48;;;-2.10;99.90;;;;;;5043739;28;20039;-71
2022/12/08 06:13:30;;;;;;;23.80;13.00;;;-2.20;99.90;;;;;;5040860;28;20029;-70
2022/12/08 06:16:01;;;;;;;26.13;13.05;;;-2.20;99.90;;;;;;5026763;28;20099;-70
2022/12/08 06:18:27;;;;;;;26.63;13.20;;;-2.20;99.90;;;;;;5028979;28;20028;-70
2022/12/08 06:21:01;;;;;;;25.50;12.57;;;-2.20;99.90;;;;;;5056104;28;20037;-71
2022/12/08 06:23:27;;;;;;;24.67;12.85;;;-2.20;99.90;;;;;;5039968;28;20020;-71
2022/12/08 06:25:52;;;;;;;27.60;13.25;;;-2.10;99.90;;;;;;5051875;28;20052;-72
2022/12/08 06:28:18;;;;;;;24.23;12.82;;;-2.10;99.90;;;;;;5052007;28;20074;-70
2022/12/08 06:30:44;;;;;;;26.27;13.25;;;-2.20;99.90;;;;;;5057744;28;20654;-71
2022/12/08 06:33:09;;;;;;;29.73;13.55;;;-2.20;99.90;;;;;;5056222;28;20024;-71
2022/12/08 06:35:36;;;;;;;26.73;13.27;;;-2.20;99.90;;;;;;5038525;28;20035;-70
2022/12/08 06:38:01;;;;;;;23.17;12.65;;;-2.20;99.90;;;;;;5038940;28;20728;-71
2022/12/08 06:40:27;;;;;;;25.35;11.65;;;-2.20;99.90;;;;;;5049457;28;20051;-71
2022/12/08 06:42:52;;;;;;;31.58;13.18;;;-2.10;99.90;;;;;;5045419;28;20033;-71
2022/12/08 06:45:18;;;;;;;27.50;13.13;;;-2.10;99.90;;;;;;5037757;28;20169;-71
2022/12/08 06:47:44;;;;;;;22.42;12.05;;;-2.10;99.90;;;;;;5034428;28;20044;-71
2022/12/08 06:50:11;;;;;;;24.00;12.90;;;-2.10;99.90;;;;;;5051649;28;20059;-71
2022/12/08 06:52:37;;;;;;;25.48;12.82;;;-2.10;99.90;;;;;;5024310;28;20025;-71
2022/12/08 06:55:03;;;;;;;31.45;13.07;;;-2.00;99.90;;;;;;5032236;28;20029;-71
2022/12/08 06:57:29;;;;;;;25.42;11.88;;;-2.10;99.90;;;;;;5034414;28;20041;-70
2022/12/08 06:59:55;;;;;;;22.83;12.93;;;-2.10;99.90;;;;;;5039098;28;20040;-71
2022/12/08 07:02:20;;;;;;;24.58;12.23;;;-2.10;99.90;;;;;;5024714;28;20036;-71
2022/12/08 07:04:46;;;;;;;24.83;13.23;;;-2.10;99.90;;;;;;5022578;28;20412;-70
2022/12/08 07:07:12;;;;;;;23.02;11.95;;;-2.00;99.90;;;;;;5016196;28;20025;-71
2022/12/08 07:09:37;;;;;;;20.73;11.80;;;-2.00;99.90;;;;;;5042664;28;20031;-71
2022/12/08 07:12:03;;;;;;;23.52;11.68;;;-2.10;99.90;;;;;;5053760;28;20028;-71
2022/12/08 07:14:29;;;;;;;22.38;12.48;;;-2.10;99.90;;;;;;5039690;28;20073;-70
2022/12/08 07:16:55;;;;;;;28.17;13.02;;;-2.10;99.90;;;;;;5037460;28;20481;-71
2022/12/08 07:19:20;;;;;;;25.15;12.30;;;-2.20;99.90;;;;;;5047343;28;20502;-71
2022/12/08 07:21:46;;;;;;;23.92;12.48;;;-2.20;99.90;;;;;;5034530;28;20477;-71
2022/12/08 07:24:12;;;;;;;23.15;12.75;;;-2.20;99.90;;;;;;5019304;28;20459;-70
2022/12/08 07:26:38;;;;;;;26.55;12.70;;;-2.20;99.90;;;;;;5051687;28;20040;-71
2022/12/08 07:29:04;;;;;;;25.88;11.60;;;-2.20;99.90;;;;;;5045169;28;20392;-71
2022/12/08 07:31:30;;;;;;;20.38;11.32;;;-2.20;99.90;;;;;;5042986;28;20032;-71
2022/12/08 07:33:56;;;;;;;25.75;11.82;;;-2.20;99.90;;;;;;5036750;28;20559;-71
2022/12/08 07:36:23;;;;;;;22.23;12.15;;;-2.20;99.90;;;;;;5011042;28;20041;-70
2022/12/08 07:38:49;;;;;;;23.10;11.82;;;-2.30;99.90;;;;;;5040344;28;20032;-70
2022/12/08 07:41:18;;;;;;;24.33;12.57;;;-2.30;99.90;;;;;;5034293;28;20109;-71
2022/12/08 07:43:44;;;;;;;23.70;12.73;;;-2.30;99.90;;;;;;5034591;28;20551;-70
2022/12/08 07:46:14;;;;;;;25.92;12.00;;;-2.30;99.90;;;;;;5033541;28;20199;-71
2022/12/08 07:48:41;;;;;;;22.92;12.27;;;-2.30;99.90;;;;;;5031889;28;20425;-71
2022/12/08 07:51:06;;;;;;;24.23;12.30;;;-2.30;99.90;;;;;;5030587;28;20258;-70
2022/12/08 07:53:32;;;;;;;23.63;12.63;;;-2.30;99.90;;;;;;5039044;28;20016;-70
2022/12/08 07:55:58;;;;;;;25.55;11.55;;;-2.30;99.90;;;;;;5037100;28;20034;-71
2022/12/08 07:58:24;;;;;;;27.38;12.20;;;-2.30;99.90;;;;;;5035752;28;20028;-71
2022/12/08 08:00:50;;;;;;;25.00;11.55;;;-2.30;99.90;;;;;;5036764;28;20025;-70
2022/12/08 08:03:16;;;;;;;25.60;11.82;;;-2.30;99.90;;;;;;5050935;28;20028;-71
2022/12/08 08:05:43;;;;;;;22.88;12.27;;;-2.20;99.90;;;;;;5053876;28;20615;-70
2022/12/08 08:08:09;;;;;;;27.10;12.68;;;-2.20;99.90;;;;;;5038439;28;20439;-71
2022/12/08 08:10:35;;;;;;;20.65;12.07;;;-2.20;99.90;;;;;;5027335;28;20119;-71
2022/12/08 08:13:00;;;;;;;28.02;12.07;;;-2.20;99.90;;;;;;5047610;28;20029;-71
2022/12/08 08:15:26;;;;;;;24.38;11.43;;;-2.10;99.90;;;;;;5035812;28;20040;-71
2022/12/08 08:17:53;;;;;;;24.92;12.32;;;-2.00;99.90;;;;;;5037549;28;20039;-70
2022/12/08 08:20:20;;;;;;;21.42;11.50;;;-1.90;99.90;;;;;;5038399;28;20219;-71
2022/12/08 08:22:47;;;;;;;22.10;11.73;;;-1.80;99.90;;;;;;5034092;28;20033;-71
2022/12/08 08:25:14;;;;;;;27.65;12.60;;;-1.60;99.90;;;;;;5036969;28;20099;-71
2022/12/08 08:27:41;;;;;;;24.52;11.35;;;-1.50;99.90;;;;;;5037432;28;20064;-71
2022/12/08 08:30:09;;;;;;;24.85;12.43;;;-1.40;99.90;;;;;;5037207;28;20408;-71
2022/12/08 08:32:35;;;;;;;25.70;12.27;;;-1.20;99.90;;;;;;5036555;28;20086;-72
2022/12/08 08:35:01;;;;;;;20.88;11.80;;;-1.10;99.90;;;;;;5044353;28;20071;-71
2022/12/08 08:37:27;;;;;;;23.58;12.30;;;-0.90;99.90;;;;;;5038288;28;20113;-71
2022/12/08 08:39:53;;;;;;;22.75;12.13;;;-0.80;99.90;;;;;;5036298;28;20059;-71
2022/12/08 08:42:19;;;;;;;25.17;13.23;;;-0.60;99.90;;;;;;5040561;28;20024;-70
2022/12/08 08:44:44;;;;;;;26.88;12.18;;;-0.50;99.90;;;;;;5038867;28;20082;-71
2022/12/08 08:47:10;;;;;;;21.38;12.30;;;-0.40;99.90;;;;;;5040056;28;20044;-71
2022/12/08 08:49:36;;;;;;;28.17;13.52;;;-0.20;99.90;;;;;;5037608;28;20120;-71
2022/12/08 08:52:03;;;;;;;23.30;12.80;;;-0.20;99.90;;;;;;5041879;28;20336;-70
2022/12/08 08:54:28;;;;;;;27.02;13.75;;;-0.10;99.90;;;;;;5036105;28;20021;-71
2022/12/08 08:56:55;;;;;;;23.02;12.82;;;-0.10;99.90;;;;;;5018869;28;20064;-70
2022/12/08 08:59:21;;;;;;;30.02;14.95;;;0.00;99.90;;;;;;5038724;28;20021;-71
2022/12/08 09:01:46;;;;;;;30.35;14.68;;;0.20;99.90;;;;;;5024018;28;20543;-71
2022/12/08 09:04:12;;;;;;;28.80;13.55;;;0.40;99.90;;;;;;5057919;28;20021;-71
2022/12/08 09:06:38;;;;;;;21.92;12.57;;;0.70;99.90;;;;;;5029467;28;20127;-71
2022/12/08 09:09:04;;;;;;;27.10;12.52;;;1.00;99.90;;;;;;5042541;28;20643;-71
2022/12/08 09:11:30;;;;;;;23.92;12.73;;;1.20;99.90;;;;;;5037220;28;20109;-71
2022/12/08 09:13:56;;;;;;;22.85;12.95;;;1.30;99.90;;;;;;5043587;28;20129;-71
2022/12/08 09:16:22;;;;;;;23.13;12.77;;;1.50;99.10;;;;;;5043030;28;20456;-71
2022/12/08 09:18:48;;;;;;;23.55;11.60;;;1.80;98.70;;;;;;5037670;28;20448;-71
2022/12/08 09:21:19;;;;;;;26.25;11.90;;;2.00;97.50;;;;;;5034432;28;20525;-71
2022/12/08 09:23:45;;;;;;;24.73;11.33;;;2.30;96.80;;;;;;5041328;28;20024;-70
2022/12/08 09:26:10;;;;;;;19.92;11.45;;;2.60;95.60;;;;;;5041442;28;20057;-71
2022/12/08 09:28:36;;;;;;;17.60;10.27;;;2.90;94.00;;;;;;5049546;28;20024;-71
2022/12/08 09:31:03;;;;;;;23.25;9.68;;;3.10;93.70;;;;;;5061308;28;20060;-70
2022/12/08 09:33:28;;;;;;;19.25;10.60;;;3.20;92.90;;;;;;5033449;28;20712;-71
2022/12/08 09:35:54;;;;;;;15.07;9.48;;;3.20;92.30;;;;;;5058238;28;20428;-71
2022/12/08 09:38:20;;;;;;;15.15;9.85;;;3.30;92.90;;;;;;5053548;28;20025;-71
2022/12/08 09:40:51;;;;;;;20.83;10.32;;;3.40;92.80;;;;;;5038953;28;20028;-71
2022/12/08 09:43:35;;;;;;;19.90;10.68;;;3.30;92.50;;;;;;5045659;28;20059;-71
2022/12/08 09:46:06;;;;;;;18.00;9.82;;;3.40;92.90;;;;;;5019708;28;20148;-71
2022/12/08 09:48:35;;;;;;;20.00;10.73;;;3.40;92.60;;;;;;5026122;28;20059;-71
2022/12/08 09:51:03;;;;;;;70.45;29.58;;;3.30;93.20;;;;;;5039160;28;20035;-71
2022/12/08 09:53:40;;;;;;;29.13;14.13;;;3.30;93.20;;;;;;5039410;28;20578;-71
2022/12/08 09:56:22;;;;;;;25.48;13.93;;;3.20;93.50;;;;;;5055432;28;20071;-71
2022/12/08 09:58:51;;;;;;;23.77;14.45;;;3.10;93.60;;;;;;5045197;28;20079;-72
2022/12/08 10:01:18;;;;;;;38.08;16.33;;;3.10;93.50;;;;;;5039994;28;20160;-71
2022/12/08 10:03:45;;;;;;;41.38;16.48;;;3.20;94.30;;;;;;5051169;28;20056;-71
2022/12/08 10:06:29;;;;;;;34.45;14.30;;;3.20;94.10;;;;;;5049878;28;20025;-71
2022/12/08 10:09:24;;;;;;;33.63;14.65;;;3.30;93.70;;;;;;5049322;28;20470;-71
2022/12/08 10:12:17;;;;;;;43.25;17.25;;;3.20;94.20;;;;;;5059728;28;20085;-71
2022/12/08 10:15:07;;;;;;;34.38;13.93;;;3.30;94.90;;;;;;5055778;28;20082;-72
2022/12/08 10:17:47;;;;;;;21.30;10.98;;;3.40;94.50;;;;;;5038831;28;20502;-71
2022/12/08 10:20:17;;;;;;;20.13;10.05;;;3.60;94.30;;;;;;5026401;28;20513;-71
2022/12/08 10:22:46;;;;;;;18.67;10.77;;;3.70;93.40;;;;;;5038199;28;20029;-71
2022/12/08 10:25:47;;;;;;;19.65;10.75;;;3.80;93.10;;;;;;5037177;28;20927;-71
2022/12/08 10:28:13;;;;;;;23.83;10.35;;;4.00;92.90;;;;;;4957929;28;20480;-71
2022/12/08 10:30:39;;;;;;;19.15;10.30;;;4.10;92.40;;;;;;5029351;28;20510;-71
2022/12/08 10:33:13;;;;;;;19.08;10.63;;;4.20;92.10;;;;;;5041735;28;20108;-71
2022/12/08 10:35:45;;;;;;;19.27;10.57;;;4.30;91.80;;;;;;5046280;28;20045;-71
2022/12/08 10:38:36;;;;;;;19.90;10.85;;;4.50;91.70;;;;;;5046565;28;20112;-71
2022/12/08 10:41:10;;;;;;;22.20;10.90;;;4.50;90.70;;;;;;5054070;28;20191;-71
2022/12/08 10:43:53;;;;;;;18.88;10.73;;;4.70;90.70;;;;;;5045760;28;20025;-70
2022/12/08 10:46:24;;;;;;;19.33;10.13;;;4.70;90.20;;;;;;5047603;28;20042;-71
2022/12/08 10:48:52;;;;;;;19.55;11.02;;;4.90;89.70;;;;;;5044935;28;20021;-70
2022/12/08 10:51:28;;;;;;;17.55;9.70;;;5.00;90.00;;;;;;5057149;28;20063;-70
2022/12/08 10:53:55;;;;;;;15.23;9.40;;;5.30;88.20;;;;;;5049663;28;20495;-71
2022/12/08 10:56:28;;;;;;;18.60;10.07;;;5.60;84.70;;;;;;5037399;28;20305;-69
2022/12/08 10:59:11;;;;;;;16.90;9.75;;;6.00;82.60;;;;;;5041343;28;20025;-70
2022/12/08 11:01:39;;;;;;;20.48;10.70;;;6.10;81.10;;;;;;5032286;28;20271;-69
2022/12/08 11:04:14;;;;;;;19.33;9.90;;;6.20;79.50;;;;;;5038740;28;20388;-70
2022/12/08 11:06:41;;;;;;;19.08;10.27;;;6.20;80.40;;;;;;5034042;28;20067;-70
2022/12/08 11:09:23;;;;;;;18.63;10.50;;;6.60;77.30;;;;;;5033815;28;20028;-70
2022/12/08 11:11:50;;;;;;;19.40;9.93;;;6.70;75.80;;;;;;5034652;28;20028;-70
2022/12/08 11:14:22;;;;;;;20.70;9.88;;;6.80;74.10;;;;;;5038749;28;20363;-69
2022/12/08 11:16:55;;;;;;;16.40;9.60;;;7.00;73.10;;;;;;5037738;28;20524;-69
2022/12/08 11:19:25;;;;;;;15.35;10.00;;;7.10;74.90;;;;;;5019215;28;20029;-70
2022/12/08 11:21:51;;;;;;;19.30;9.85;;;7.00;73.00;;;;;;5036431;28;20064;-69
2022/12/08 11:24:28;;;;;;;17.40;9.50;;;7.00;72.30;;;;;;5047471;28;20557;-70
2022/12/08 11:27:01;;;;;;;18.92;9.63;;;7.10;73.40;;;;;;5041472;28;20048;-70
2022/12/08 11:29:29;;;;;;;17.08;9.50;;;7.10;72.60;;;;;;5028779;28;20040;-70
2022/12/08 11:32:06;;;;;;;15.93;9.13;;;7.10;72.40;;;;;;5038311;28;20040;-70
2022/12/08 11:34:46;;;;;;;16.20;9.88;;;7.20;73.40;;;;;;5015067;28;20029;-70
2022/12/08 11:37:40;;;;;;;16.30;9.43;;;7.30;74.10;;;;;;5019035;28;20113;-70
2022/12/08 11:40:20;;;;;;;20.15;10.55;;;7.20;72.70;;;;;;5029368;28;20048;-70
2022/12/08 11:43:14;;;;;;;16.05;9.45;;;7.40;73.20;;;;;;5033713;28;20033;-70
2022/12/08 11:45:41;;;;;;;16.85;10.05;;;7.80;69.80;;;;;;5050395;28;20033;-70
2022/12/08 11:48:15;;;;;;;18.83;10.30;;;7.90;71.70;;;;;;5037304;28;20043;-70
2022/12/08 11:50:49;;;;;;;20.35;10.25;;;8.10;68.80;;;;;;5038881;28;20385;-71
2022/12/08 11:53:27;;;;;;;21.08;10.60;;;8.20;68.60;;;;;;5032805;28;20126;-70
2022/12/08 11:55:58;;;;;;;19.33;10.82;;;8.20;70.10;;;;;;5036425;28;21195;-71
2022/12/08 11:58:29;;;;;;;20.98;10.65;;;8.40;67.50;;;;;;4676873;28;9999843;-70
2022/12/08 12:00:56;;;;;;;19.15;11.18;;;8.40;68.70;;;;;;5034707;28;20009;-70
2022/12/08 12:03:42;;;;;;;21.00;10.73;;;7.90;69.90;;;;;;5036345;28;20094;-70
2022/12/08 12:06:08;;;;;;;17.70;10.35;;;8.10;68.90;;;;;;5036322;28;20029;-70
2022/12/08 12:08:36;;;;;;;17.98;9.82;;;8.00;70.10;;;;;;5037359;28;20393;-71
2022/12/08 12:11:08;;;;;;;15.80;9.65;;;7.80;69.10;;;;;;5036528;28;20384;-70
2022/12/08 12:14:09;;;;;;;18.75;9.88;;;7.90;70.60;;;;;;5038112;28;20035;-71
2022/12/08 12:16:38;;;;;;;16.08;10.32;;;8.20;69.70;;;;;;5036879;28;20099;-71
2022/12/08 12:19:11;;;;;;;17.30;10.25;;;7.80;69.30;;;;;;5040327;28;20031;-71
2022/12/08 12:21:49;;;;;;;18.20;9.68;;;7.70;71.10;;;;;;5036452;28;20044;-70
2022/12/08 12:24:24;;;;;;;18.58;9.35;;;7.80;72.00;;;;;;5032690;28;20060;-71
2022/12/08 12:26:57;;;;;;;15.95;9.45;;;7.90;74.80;;;;;;5024548;28;20078;-71
2022/12/08 12:29:26;;;;;;;17.70;9.43;;;7.60;72.60;;;;;;5052514;28;20031;-71
2022/12/08 12:31:57;;;;;;;14.32;9.52;;;7.60;71.90;;;;;;5042173;28;20040;-71
2022/12/08 12:34:24;;;;;;;;;;;7.90;70.80;;;;;;4677127;28;9999738;-71
2022/12/08 12:36:57;;;;;;;17.63;8.63;;;7.80;71.10;;;;;;5013459;28;19921;-71
2022/12/08 12:39:30;;;;;;;15.95;9.07;;;7.90;73.00;;;;;;5010896;28;20040;-71
2022/12/08 12:41:59;;;;;;;13.15;7.95;;;8.00;72.80;;;;;;5015657;28;20025;-70
2022/12/08 12:44:37;;;;;;;16.48;8.52;;;8.00;71.50;;;;;;5021854;28;20277;-70
2022/12/08 12:47:09;;;;;;;13.65;8.48;;;8.20;73.20;;;;;;5023689;28;20017;-70